createdAt,value
2022-07-28T00:01:24.249Z,100584.94
2022-07-28T00:03:50.832Z,100565.47
2022-07-28T00:06:17.535Z,100577.22
2022-07-28T00:08:44.161Z,100577.97
2022-07-28T00:11:11.077Z,100573.69
2022-07-28T00:13:37.732Z,100570.34
2022-07-28T00:16:04.617Z,100573.03
2022-07-28T00:18:31.254Z,100554.38
2022-07-28T00:20:58.142Z,100550.75
2022-07-28T00:23:39.575Z,100572.78
2022-07-28T00:26:08.540Z,100559.06
2022-07-28T00:28:35.694Z,100564.41
2022-07-28T00:31:05.515Z,100541.50
2022-07-28T00:33:36.203Z,100550.53
2022-07-28T00:36:03.822Z,100545.91
2022-07-28T00:38:30.357Z,100558.00
2022-07-28T00:41:11.915Z,100560.69
2022-07-28T00:43:39.014Z,100574.13
2022-07-28T00:46:06.079Z,100567.28
2022-07-28T00:48:32.713Z,100538.06
2022-07-28T00:50:59.347Z,100558.63
2022-07-28T00:53:26.659Z,100554.03
2022-07-28T00:56:05.568Z,100560.31
2022-07-28T00:58:33.537Z,100557.78
2022-07-28T01:01:00.096Z,100551.03
2022-07-28T01:03:27.701Z,100557.31
2022-07-28T01:06:03.394Z,100556.56
2022-07-28T01:08:40.895Z,100550.47
2022-07-28T01:11:17.659Z,100525.53
2022-07-28T01:14:29.746Z,100550.38
2022-07-28T01:16:56.271Z,100543.22
2022-07-28T01:19:37.756Z,100539.97
2022-07-28T01:22:09.168Z,100524.50
2022-07-28T01:24:48.622Z,100518.50
2022-07-28T01:27:24.397Z,100542.25
2022-07-28T01:30:32.971Z,100535.00
2022-07-28T01:33:15.346Z,100506.84
2022-07-28T01:35:54.684Z,100526.63
2022-07-28T01:38:23.810Z,100521.41
2022-07-28T01:40:53.075Z,100531.66
2022-07-28T01:43:24.384Z,100532.53
2022-07-28T01:45:51.823Z,100535.41
2022-07-28T01:48:20.545Z,100536.25
2022-07-28T01:50:50.805Z,100534.13
2022-07-28T01:53:17.972Z,100528.41
2022-07-28T01:55:46.255Z,100530.75
2022-07-28T01:58:14.151Z,100517.38
2022-07-28T02:00:42.833Z,100510.81
2022-07-28T02:03:11.732Z,100513.47
2022-07-28T02:05:41.353Z,100511.56
2022-07-28T02:08:09.712Z,100521.41
2022-07-28T02:10:38.016Z,100501.09
2022-07-28T02:13:06.807Z,100505.13
2022-07-28T02:15:34.553Z,100508.56
2022-07-28T02:18:02.518Z,100506.16
2022-07-28T02:20:30.159Z,100485.72
2022-07-28T02:22:57.856Z,100487.53
2022-07-28T02:25:24.522Z,100505.50
2022-07-28T02:27:58.422Z,100495.69
2022-07-28T02:30:35.512Z,100470.97
2022-07-28T02:33:11.287Z,100484.44
2022-07-28T02:36:10.795Z,100482.19
2022-07-28T02:38:45.116Z,100481.34
2022-07-28T02:41:18.878Z,100486.88
2022-07-28T02:43:50.112Z,100481.81
2022-07-28T02:46:22.019Z,100480.56
2022-07-28T02:48:56.538Z,100490.41
2022-07-28T02:51:28.530Z,100453.38
2022-07-28T02:53:56.076Z,100472.44
2022-07-28T02:56:23.126Z,100454.34
2022-07-28T02:58:51.459Z,100471.84
2022-07-28T03:01:19.544Z,100463.09
2022-07-28T03:03:50.037Z,100474.91
2022-07-28T03:06:18.153Z,100466.25
2022-07-28T03:08:44.739Z,100449.59
2022-07-28T03:11:13.253Z,100447.88
2022-07-28T03:13:40.397Z,100454.47
2022-07-28T03:16:07.903Z,100444.31
2022-07-28T03:18:35.054Z,100439.84
2022-07-28T03:21:01.740Z,100460.47
2022-07-28T03:23:33.161Z,100459.31
2022-07-28T03:26:05.660Z,100456.56
2022-07-28T03:28:33.797Z,100463.69
2022-07-28T03:31:05.906Z,100458.56
2022-07-28T03:33:33.479Z,100451.59
2022-07-28T03:36:09.341Z,100450.50
2022-07-28T03:38:41.068Z,100456.38
2022-07-28T03:41:10.168Z,100462.47
2022-07-28T03:43:37.959Z,100461.69
2022-07-28T03:46:05.855Z,100463.22
2022-07-28T03:48:35.296Z,100465.91
2022-07-28T03:51:02.018Z,100470.19
2022-07-28T03:53:29.789Z,100475.41
2022-07-28T03:55:57.467Z,100463.03
2022-07-28T03:58:28.545Z,100463.13
2022-07-28T04:00:56.661Z,100461.31
2022-07-28T04:03:43.082Z,100466.91
2022-07-28T04:06:09.938Z,100471.28
2022-07-28T04:08:36.544Z,100462.53
2022-07-28T04:11:03.086Z,100470.75
2022-07-28T04:13:32.157Z,100473.00
2022-07-28T04:16:00.159Z,100462.34
2022-07-28T04:18:26.810Z,100466.63
2022-07-28T04:20:53.353Z,100467.28
2022-07-28T04:23:20.979Z,100462.13
2022-07-28T04:25:47.581Z,100456.13
2022-07-28T04:28:15.461Z,100460.53
2022-07-28T04:30:44.123Z,100452.09
2022-07-28T04:33:12.121Z,100451.66
2022-07-28T04:35:38.811Z,100457.41
2022-07-28T04:38:05.936Z,100456.00
2022-07-28T04:40:34.425Z,100458.38
2022-07-28T04:43:01.089Z,100443.66
2022-07-28T04:45:27.712Z,100464.38
2022-07-28T04:47:54.431Z,100473.72
2022-07-28T04:50:21.637Z,100470.75
2022-07-28T04:52:51.175Z,100473.38
2022-07-28T04:55:18.481Z,100475.81
2022-07-28T04:57:45.162Z,100479.06
2022-07-28T05:00:14.360Z,100457.91
2022-07-28T05:02:42.695Z,100466.63
2022-07-28T05:05:10.058Z,100471.75
2022-07-28T05:07:38.414Z,100474.31
2022-07-28T05:10:08.898Z,100456.28
2022-07-28T05:12:35.589Z,100467.69
2022-07-28T05:15:02.266Z,100477.25
2022-07-28T05:17:28.876Z,100478.19
2022-07-28T05:19:55.388Z,100478.06
2022-07-28T05:22:21.945Z,100472.63
2022-07-28T05:24:48.539Z,100467.59
2022-07-28T05:27:15.093Z,100468.22
2022-07-28T05:29:47.618Z,100478.31
2022-07-28T05:32:16.986Z,100475.22
2022-07-28T05:34:44.388Z,100457.25
2022-07-28T05:37:10.922Z,100446.59
2022-07-28T05:39:37.625Z,100463.94
2022-07-28T05:42:04.320Z,100470.88
2022-07-28T05:44:35.761Z,100464.56
2022-07-28T05:47:04.397Z,100465.63
2022-07-28T05:49:31.521Z,100473.13
2022-07-28T05:51:58.087Z,100452.06
2022-07-28T05:54:24.768Z,100461.16
2022-07-28T05:56:52.488Z,100467.56
2022-07-28T05:59:19.142Z,100470.66
2022-07-28T06:01:46.065Z,100474.06
2022-07-28T06:04:29.372Z,100469.59
2022-07-28T06:06:56.352Z,100457.31
2022-07-28T06:09:22.907Z,100465.28
2022-07-28T06:11:50.626Z,100461.94
2022-07-28T06:14:18.110Z,100464.72
2022-07-28T06:16:45.210Z,100467.66
2022-07-28T06:19:11.796Z,100474.34
2022-07-28T06:21:38.414Z,100460.03
2022-07-28T06:24:05.369Z,100470.53
2022-07-28T06:26:31.937Z,100450.50
2022-07-28T06:28:58.702Z,100469.66
2022-07-28T06:31:25.461Z,100463.94
2022-07-28T06:33:52.084Z,100457.53
2022-07-28T06:36:18.671Z,100462.78
2022-07-28T06:38:45.255Z,100471.25
2022-07-28T06:41:12.134Z,100464.84
2022-07-28T06:43:39.364Z,100462.91
2022-07-28T06:46:06.284Z,100464.22
2022-07-28T06:48:32.945Z,100461.44
2022-07-28T06:50:59.886Z,100464.00
2022-07-28T06:53:27.976Z,100480.09
2022-07-28T06:56:00.887Z,100484.25
2022-07-28T06:58:27.472Z,100470.47
2022-07-28T07:00:54.918Z,100480.91
2022-07-28T07:03:21.612Z,100473.19
2022-07-28T07:05:49.069Z,100466.34
2022-07-28T07:08:20.775Z,100472.44
2022-07-28T07:10:47.552Z,100471.50
2022-07-28T07:13:14.142Z,100471.84
2022-07-28T07:15:40.824Z,100469.94
2022-07-28T07:18:07.501Z,100470.31
2022-07-28T07:20:34.027Z,100466.97
2022-07-28T07:23:00.781Z,100469.81
2022-07-28T07:25:27.493Z,100449.34
2022-07-28T07:27:54.040Z,100459.75
2022-07-28T07:30:20.669Z,100459.75
2022-07-28T07:32:47.290Z,100462.16
2022-07-28T07:35:13.867Z,100453.78
2022-07-28T07:37:40.967Z,100449.09
2022-07-28T07:40:08.355Z,100444.28
2022-07-28T07:42:35.115Z,100450.25
2022-07-28T07:45:02.144Z,100456.91
2022-07-28T07:47:28.901Z,100448.53
2022-07-28T07:49:55.656Z,100444.84
2022-07-28T07:52:22.280Z,100439.88
2022-07-28T07:54:48.865Z,100448.94
2022-07-28T07:57:15.639Z,100443.00
2022-07-28T07:59:42.159Z,100424.84
2022-07-28T08:02:08.910Z,100436.13
2022-07-28T08:04:37.768Z,100441.19
2022-07-28T08:07:06.172Z,100448.44
2022-07-28T08:09:33.665Z,100421.75
2022-07-28T08:12:00.235Z,100436.28
2022-07-28T08:14:26.870Z,100436.50
2022-07-28T08:16:54.350Z,100433.34
2022-07-28T08:19:21.578Z,100409.00
2022-07-28T08:21:48.551Z,100434.44
2022-07-28T08:24:32.361Z,100425.41
2022-07-28T08:27:01.049Z,100432.28
2022-07-28T08:29:27.619Z,100434.78
2022-07-28T08:31:54.179Z,100433.25
2022-07-28T08:34:29.879Z,100431.22
2022-07-28T08:36:59.724Z,100438.84
2022-07-28T08:39:26.266Z,100425.03
2022-07-28T08:42:09.127Z,100432.28
2022-07-28T08:44:51.056Z,100442.56
2022-07-28T08:47:18.046Z,100437.09
2022-07-28T08:49:47.437Z,100437.06
2022-07-28T08:52:14.549Z,100425.84
2022-07-28T08:54:46.120Z,100428.59
2022-07-28T08:57:20.376Z,100412.78
2022-07-28T08:59:49.465Z,100427.00
2022-07-28T09:02:16.273Z,100428.03
2022-07-28T09:04:45.136Z,100424.44
2022-07-28T09:07:12.170Z,100423.00
2022-07-28T09:09:40.180Z,100422.00
2022-07-28T09:12:07.307Z,100423.88
2022-07-28T09:14:34.893Z,100423.97
2022-07-28T09:17:02.434Z,100415.22
2022-07-28T09:19:34.324Z,100411.28
2022-07-28T09:22:02.437Z,100412.56
2022-07-28T09:24:36.119Z,100422.09
2022-07-28T09:27:07.648Z,100404.34
2022-07-28T09:29:35.345Z,100412.00
2022-07-28T09:32:02.377Z,100410.69
2022-07-28T09:34:29.794Z,100411.38
2022-07-28T09:36:56.942Z,100409.91
2022-07-28T09:39:33.745Z,100396.56
2022-07-28T09:42:00.873Z,100385.34
2022-07-28T09:44:28.981Z,100397.06
2022-07-28T09:46:57.056Z,100399.28
2022-07-28T09:49:41.601Z,100398.94
2022-07-28T09:52:09.776Z,100397.47
2022-07-28T09:54:40.713Z,100393.53
2022-07-28T09:57:11.290Z,100391.69
2022-07-28T09:59:42.087Z,100393.25
2022-07-28T10:02:11.431Z,100391.06
2022-07-28T10:04:40.806Z,100385.97
2022-07-28T10:07:16.960Z,100372.34
2022-07-28T10:09:44.400Z,100365.41
2022-07-28T10:12:23.359Z,100368.88
2022-07-28T10:14:52.057Z,100368.94
2022-07-28T10:17:34.314Z,100345.56
2022-07-28T10:20:03.250Z,100356.78
2022-07-28T10:22:33.772Z,100347.97
2022-07-28T10:25:07.652Z,100353.94
2022-07-28T10:27:34.242Z,100348.69
2022-07-28T10:30:04.391Z,100346.03
2022-07-28T10:32:41.652Z,100344.97
2022-07-28T10:35:11.753Z,100340.03
2022-07-28T10:37:43.866Z,100346.78
2022-07-28T10:40:12.595Z,100335.00
2022-07-28T10:42:40.871Z,100335.59
2022-07-28T10:45:11.224Z,100340.00
2022-07-28T10:47:37.812Z,100341.53
2022-07-28T10:50:05.369Z,100331.88
2022-07-28T10:52:51.571Z,100328.47
2022-07-28T10:55:41.902Z,100301.38
2022-07-28T10:58:47.608Z,100325.84
2022-07-28T11:01:49.654Z,100328.38
2022-07-28T11:04:41.717Z,100323.75
2022-07-28T11:07:12.963Z,100311.25
2022-07-28T11:09:39.674Z,100326.69
2022-07-28T11:12:06.644Z,100315.59
2022-07-28T11:14:39.455Z,100323.16
2022-07-28T11:17:10.810Z,100311.50
2022-07-28T11:19:55.795Z,100309.13
2022-07-28T11:22:30.352Z,100310.97
2022-07-28T11:24:58.933Z,100309.09
2022-07-28T11:27:45.136Z,100284.16
2022-07-28T11:30:33.622Z,100301.69
2022-07-28T11:33:01.295Z,100285.47
2022-07-28T11:35:30.073Z,100277.78
2022-07-28T11:38:02.473Z,100292.72
2022-07-28T11:40:36.447Z,100285.66
2022-07-28T11:43:22.166Z,100285.78
2022-07-28T11:45:55.736Z,100278.50
2022-07-28T11:48:23.505Z,100278.81
2022-07-28T11:51:05.480Z,100283.09
2022-07-28T11:53:36.838Z,100254.84
2022-07-28T11:56:08.576Z,100274.34
2022-07-28T11:58:35.370Z,100263.91
2022-07-28T12:01:21.309Z,100271.34
2022-07-28T12:03:55.058Z,100257.59
2022-07-28T12:06:26.270Z,100268.63
2022-07-28T12:08:57.660Z,100261.16
2022-07-28T12:11:26.099Z,100276.25
2022-07-28T12:14:09.695Z,100271.06
2022-07-28T12:16:39.673Z,100266.31
2022-07-28T12:19:07.918Z,100264.78
2022-07-28T12:21:46.361Z,100262.34
2022-07-28T12:24:45.958Z,100262.19
2022-07-28T12:27:15.378Z,100255.31
2022-07-28T12:29:43.613Z,100239.28
2022-07-28T12:32:10.678Z,100240.28
2022-07-28T12:34:40.350Z,100242.28
2022-07-28T12:37:12.636Z,100238.44
2022-07-28T12:39:42.331Z,100243.69
2022-07-28T12:42:10.314Z,100240.84
2022-07-28T12:44:39.625Z,100216.00
2022-07-28T12:47:08.332Z,100233.47
2022-07-28T12:49:36.527Z,100215.44
2022-07-28T12:52:17.095Z,100232.03
2022-07-28T12:54:52.980Z,100228.75
2022-07-28T12:57:50.743Z,100226.13
2022-07-28T13:00:20.199Z,100233.47
2022-07-28T13:02:48.382Z,100226.75
2022-07-28T13:05:33.467Z,100227.22
2022-07-28T13:08:05.874Z,100222.69
2022-07-28T13:10:33.354Z,100218.19
2022-07-28T13:13:05.556Z,100222.88
2022-07-28T13:15:32.508Z,100209.63
2022-07-28T13:18:00.253Z,100216.28
2022-07-28T13:20:27.671Z,100216.59
2022-07-28T13:22:56.015Z,100210.97
2022-07-28T13:25:23.801Z,100205.50
2022-07-28T13:27:54.979Z,100209.66
2022-07-28T13:30:23.337Z,100214.78
2022-07-28T13:32:50.213Z,100209.03
2022-07-28T13:35:19.073Z,100203.19
2022-07-28T13:37:47.582Z,100210.84
2022-07-28T13:40:14.219Z,100204.66
2022-07-28T13:42:40.813Z,100213.03
2022-07-28T13:45:21.451Z,100209.06
2022-07-28T13:47:52.351Z,100203.59
2022-07-28T13:50:20.098Z,100200.78
2022-07-28T13:52:47.134Z,100197.41
2022-07-28T13:55:19.272Z,100201.47
2022-07-28T13:57:49.884Z,100193.38
2022-07-28T14:00:18.657Z,100196.28
2022-07-28T14:02:47.153Z,100181.06
2022-07-28T14:05:14.491Z,100185.41
2022-07-28T14:07:42.156Z,100189.69
2022-07-28T14:10:15.531Z,100180.16
2022-07-28T14:12:42.108Z,100186.41
2022-07-28T14:15:11.707Z,100204.91
2022-07-28T14:17:44.903Z,100186.59
2022-07-28T14:20:15.205Z,100190.81
2022-07-28T14:22:43.194Z,100197.69
2022-07-28T14:25:10.304Z,100196.00
2022-07-28T14:27:36.876Z,100196.56
2022-07-28T14:30:04.598Z,100191.13
2022-07-28T14:32:32.819Z,100186.13
2022-07-28T14:34:59.572Z,100179.66
2022-07-28T14:37:26.231Z,100184.97
2022-07-28T14:39:52.904Z,100185.66
2022-07-28T14:42:19.750Z,100188.66
2022-07-28T14:44:46.340Z,100185.75
2022-07-28T14:47:13.010Z,100184.94
2022-07-28T14:49:57.154Z,100165.75
2022-07-28T14:52:26.423Z,100182.38
2022-07-28T14:54:54.078Z,100181.72
2022-07-28T14:57:20.948Z,100176.84
2022-07-28T14:59:51.296Z,100186.25
2022-07-28T15:02:18.018Z,100182.75
2022-07-28T15:04:45.192Z,100187.00
2022-07-28T15:07:12.059Z,100181.50
2022-07-28T15:09:42.272Z,100174.34
2022-07-28T15:12:10.823Z,100157.78
2022-07-28T15:14:37.379Z,100170.34
2022-07-28T15:17:04.039Z,100173.09
2022-07-28T15:19:33.512Z,100168.66
2022-07-28T15:22:01.134Z,100173.47
2022-07-28T15:24:30.566Z,100160.06
2022-07-28T15:26:57.774Z,100168.41
2022-07-28T15:29:24.396Z,100160.06
2022-07-28T15:31:52.202Z,100163.44
2022-07-28T15:34:19.613Z,100163.16
2022-07-28T15:36:46.501Z,100152.56
2022-07-28T15:39:16.325Z,100143.22
2022-07-28T15:41:44.684Z,100150.22
2022-07-28T15:44:13.176Z,100162.97
2022-07-28T15:46:41.007Z,100156.97
2022-07-28T15:49:10.182Z,100139.81
2022-07-28T15:51:37.736Z,100155.75
2022-07-28T15:54:05.217Z,100161.94
2022-07-28T15:56:36.210Z,100159.59
2022-07-28T15:59:04.813Z,100149.50
2022-07-28T16:01:32.187Z,100153.44
2022-07-28T16:04:00.042Z,100147.16
2022-07-28T16:06:47.775Z,100153.63
2022-07-28T16:09:15.100Z,100123.09
2022-07-28T16:11:41.670Z,100137.84
2022-07-28T16:14:08.409Z,100141.50
2022-07-28T16:16:35.146Z,100134.75
2022-07-28T16:19:01.717Z,100130.69
2022-07-28T16:21:29.405Z,100129.09
2022-07-28T16:23:56.047Z,100123.84
2022-07-28T16:26:22.650Z,100118.28
2022-07-28T16:28:49.238Z,100124.31
2022-07-28T16:31:16.810Z,100116.69
2022-07-28T16:33:43.388Z,100112.00
2022-07-28T16:36:10.032Z,100106.66
2022-07-28T16:38:36.721Z,100091.31
2022-07-28T16:41:03.635Z,100095.72
2022-07-28T16:43:31.424Z,100085.84
2022-07-28T16:45:58.106Z,100095.16
2022-07-28T16:48:24.817Z,100094.84
2022-07-28T16:50:51.370Z,100106.06
2022-07-28T16:53:18.032Z,100103.72
2022-07-28T16:55:46.971Z,100102.41
2022-07-28T16:58:13.948Z,100106.34
2022-07-28T17:00:40.736Z,100102.41
2022-07-28T17:03:07.364Z,100098.19
2022-07-28T17:05:37.738Z,100097.00
2022-07-28T17:08:04.964Z,100090.81
2022-07-28T17:10:31.662Z,100085.00
2022-07-28T17:12:58.629Z,100093.19
2022-07-28T17:15:25.548Z,100092.00
2022-07-28T17:17:52.821Z,100094.78
2022-07-28T17:20:20.685Z,100089.75
2022-07-28T17:22:47.513Z,100098.03
2022-07-28T17:28:01.189Z,100076.66
2022-07-28T17:30:28.118Z,100086.97
2022-07-28T17:32:58.789Z,100077.00
2022-07-28T17:35:31.595Z,100085.72
2022-07-28T17:38:01.281Z,100069.56
2022-07-28T17:40:27.976Z,100090.66
2022-07-28T17:42:54.551Z,100084.56
2022-07-28T17:45:21.456Z,100072.94
2022-07-28T17:47:48.184Z,100090.19
2022-07-28T17:50:14.857Z,100085.69
2022-07-28T17:52:45.386Z,100093.47
2022-07-28T17:55:34.485Z,100085.84
2022-07-28T17:58:22.739Z,100079.94
2022-07-28T18:00:58.080Z,100087.91
2022-07-28T18:03:25.833Z,100077.41
2022-07-28T18:05:52.689Z,100083.09
2022-07-28T18:08:20.024Z,100079.22
2022-07-28T18:10:50.385Z,100078.81
2022-07-28T18:13:17.948Z,100063.66
2022-07-28T18:15:44.592Z,100084.16
2022-07-28T18:18:11.346Z,100089.09
2022-07-28T18:20:39.160Z,100090.19
2022-07-28T18:23:07.726Z,100088.84
2022-07-28T18:25:36.120Z,100078.09
2022-07-28T18:28:04.461Z,100092.81
2022-07-28T18:30:31.945Z,100089.28
2022-07-28T18:32:58.496Z,100104.38
2022-07-28T18:35:25.172Z,100096.09
2022-07-28T18:37:51.891Z,100078.88
2022-07-28T18:40:21.549Z,100106.16
2022-07-28T18:42:48.682Z,100098.72
2022-07-28T18:45:16.404Z,100104.16
2022-07-28T18:47:45.599Z,100107.22
2022-07-28T18:50:30.576Z,100111.44
2022-07-28T18:52:57.862Z,100101.16
2022-07-28T18:55:24.684Z,100101.16
2022-07-28T18:57:51.306Z,100084.44
2022-07-28T19:00:17.961Z,100108.16
2022-07-28T19:02:44.620Z,100100.69
2022-07-28T19:05:11.276Z,100104.25
2022-07-28T19:07:37.912Z,100112.59
2022-07-28T19:10:05.400Z,100093.31
2022-07-28T19:12:34.169Z,100123.09
2022-07-28T19:15:01.576Z,100127.69
2022-07-28T19:17:28.753Z,100122.91
2022-07-28T19:19:59.674Z,100120.22
2022-07-28T19:22:26.258Z,100126.13
2022-07-28T19:24:53.130Z,100127.16
2022-07-28T19:27:20.624Z,100113.97
2022-07-28T19:29:47.282Z,100128.50
2022-07-28T19:32:13.948Z,100120.53
2022-07-28T19:34:43.014Z,100134.75
2022-07-28T19:37:10.153Z,100144.72
2022-07-28T19:39:45.825Z,100128.63
2022-07-28T19:42:12.740Z,100139.13
2022-07-28T19:44:39.589Z,100120.94
2022-07-28T19:47:06.382Z,100122.16
2022-07-28T19:49:32.960Z,100121.09
2022-07-28T19:51:59.734Z,100136.84
2022-07-28T19:54:26.680Z,100138.34
2022-07-28T19:56:54.064Z,100147.63
2022-07-28T19:59:22.254Z,100144.59
2022-07-28T20:01:50.609Z,100150.16
2022-07-28T20:04:18.237Z,100143.84
2022-07-28T20:06:45.011Z,100136.22
2022-07-28T20:09:12.721Z,100139.38
2022-07-28T20:11:41.064Z,100151.03
2022-07-28T20:14:08.122Z,100144.78
2022-07-28T20:16:34.883Z,100145.78
2022-07-28T20:19:02.628Z,100125.25
2022-07-28T20:21:29.564Z,100152.56
2022-07-28T20:24:07.003Z,100155.59
2022-07-28T20:26:33.674Z,100156.06
2022-07-28T20:29:01.870Z,100152.44
2022-07-28T20:31:28.946Z,100169.50
2022-07-28T20:33:56.583Z,100180.94
2022-07-28T20:36:27.780Z,100187.50
2022-07-28T20:38:57.380Z,100181.22
2022-07-28T20:41:24.009Z,100170.66
2022-07-28T20:44:11.277Z,100192.94
2022-07-28T20:46:37.316Z,100199.03
2022-07-28T20:49:04.036Z,100192.59
2022-07-28T20:51:30.648Z,100187.34
2022-07-28T20:53:57.713Z,100193.75
2022-07-28T20:56:24.251Z,100169.16
2022-07-28T20:58:50.843Z,100208.41
2022-07-28T21:01:17.636Z,100211.13
2022-07-28T21:03:48.104Z,100201.41
2022-07-28T21:06:14.730Z,100201.56
2022-07-28T21:08:41.294Z,100205.28
2022-07-28T21:11:08.760Z,100206.72
2022-07-28T21:13:35.754Z,100205.03
2022-07-28T21:16:02.488Z,100214.13
2022-07-28T21:18:29.234Z,100216.69
2022-07-28T21:20:55.779Z,100209.53
2022-07-28T21:23:22.431Z,100197.91
2022-07-28T21:25:51.382Z,100214.66
2022-07-28T21:28:36.804Z,100213.25
2022-07-28T21:31:03.479Z,100237.53
2022-07-28T21:33:30.200Z,100237.53
2022-07-28T21:35:56.826Z,100223.13
2022-07-28T21:38:23.546Z,100234.31
2022-07-28T21:40:50.300Z,100238.16
2022-07-28T21:43:17.018Z,100212.72
2022-07-28T21:45:45.716Z,100235.06
2022-07-28T21:48:12.679Z,100243.47
2022-07-28T21:50:39.781Z,100243.63
2022-07-28T21:53:06.385Z,100237.91
2022-07-28T21:55:33.193Z,100213.31
2022-07-28T21:57:59.822Z,100232.53
2022-07-28T22:00:26.472Z,100214.00
2022-07-28T22:02:53.253Z,100238.69
2022-07-28T22:05:20.693Z,100230.66
2022-07-28T22:07:48.368Z,100230.41
2022-07-28T22:10:15.385Z,100231.31
2022-07-28T22:12:42.029Z,100234.22
2022-07-28T22:15:08.968Z,100230.81
2022-07-28T22:17:35.526Z,100242.75
2022-07-28T22:20:06.217Z,100247.59
2022-07-28T22:22:53.911Z,100246.63
2022-07-28T22:25:20.559Z,100241.63
2022-07-28T22:27:47.123Z,100241.06
2022-07-28T22:30:14.087Z,100220.56
2022-07-28T22:32:40.607Z,100232.28
2022-07-28T22:35:08.420Z,100232.13
2022-07-28T22:37:34.966Z,100229.34
2022-07-28T22:40:01.643Z,100211.19
2022-07-28T22:42:28.294Z,100231.97
2022-07-28T22:44:54.992Z,100225.03
2022-07-28T22:47:21.509Z,100227.44
2022-07-28T22:49:48.235Z,100230.28
2022-07-28T22:52:14.846Z,100225.03
2022-07-28T22:54:41.431Z,100213.59
2022-07-28T22:57:07.965Z,100228.88
2022-07-28T22:59:39.777Z,100234.56
2022-07-28T23:02:07.058Z,100222.41
2022-07-28T23:04:33.798Z,100220.97
2022-07-28T23:07:00.445Z,100217.03
2022-07-28T23:09:27.242Z,100207.72
2022-07-28T23:11:55.743Z,100222.16
2022-07-28T23:14:22.901Z,100221.59
2022-07-28T23:16:49.775Z,100216.50
2022-07-28T23:19:16.495Z,100218.63
2022-07-28T23:21:43.065Z,100221.66
2022-07-28T23:24:09.701Z,100210.16
2022-07-28T23:26:36.363Z,100208.63
2022-07-28T23:29:02.903Z,100194.16
2022-07-28T23:31:29.650Z,100205.50
2022-07-28T23:33:57.643Z,100172.94
2022-07-28T23:36:26.718Z,100212.03
2022-07-28T23:38:56.158Z,100177.22
2022-07-28T23:41:22.751Z,100214.59
2022-07-28T23:43:49.522Z,100218.56
2022-07-28T23:46:16.096Z,100212.63
2022-07-28T23:48:43.689Z,100208.22
2022-07-28T23:51:10.433Z,100185.13
2022-07-28T23:53:38.458Z,100206.38
2022-07-28T23:56:05.438Z,100217.88
2022-07-28T23:58:32.120Z,100198.06
